Playa Del Rey, California
Current Conditions -  °F | °C
As of 2:53 AM on Friday 28 Nov 2014 (Local Time) from KLAX Reporting Station
Clear Clear  
Wind Chill: 57°   Ceiling: Unl
Heat Index: 57°   Visibility: 10mi
Dew Point: 40°   Wind: 5mph
Humidity: 53%   Direction: 110°ESE
Pressure: 29.99"   Gusts: NA
Location:  33.95°N, 118.44°W
Report Text: KLAX 281053Z 11004KT 10SM CLR 14/04 A2999 RMK AO2 SLP153 T01390044 $
Loading
Personal Weather Stations






























Interactive Weather Map New forecast layout! Learn more

10-Day Weather Forecast

Advertisements
Track Severe Weather on mobile